TAF Text Data
IDs:
Format:
Raw Decoded Include METAR

Data at: 1635 UTC 30 Oct 2020

KMKT 301450Z 3015/3112 13006KT P6SM OVC050
  FM302000 15008KT P6SM SKC
  FM310400 15011KT P6SM SKC
  FM310700 15018G26KT P6SM SKC WS018/19050KT